Time;durP1;ratioP1;P1;durP2;ratioP2;P2;SDS_P1;SDS_P2;PMS_P1;PMS_P2;Temp;Humidity;BMP_temperature;BMP_pressure;BME280_temperature;BME280_humidity;BME280_pressure;Samples;Min_cycle;Max_cycle;Signal;HPM_P1;HPM_P2
2022/10/08 00:00:23;;;;;;;;;5.00;4.00;;;;;17.27;50.93;101466.94;2096550;28;45035;-63
2022/10/08 00:01:23;;;;;;;;;5.00;5.00;;;;;17.27;50.95;101478.53;2096803;28;46308;-63
2022/10/08 00:02:23;;;;;;;;;6.00;6.00;;;;;17.26;50.78;101474.09;2090541;28;47096;-63
2022/10/08 00:03:30;;;;;;;;;5.25;5.25;;;;;17.26;50.78;101481.28;2088369;28;46513;-61
2022/10/08 00:04:30;;;;;;;;;5.25;4.25;;;;;17.26;51.00;101483.97;2086695;28;46699;-62
2022/10/08 00:05:36;;;;;;;;;6.67;6.33;;;;;17.25;50.94;101484.91;2078524;28;46276;-63
2022/10/08 00:06:37;;;;;;;;;6.00;5.50;;;;;17.24;50.82;101484.03;2079496;28;46599;-63
2022/10/08 00:07:37;;;;;;;;;7.33;6.00;;;;;17.23;50.76;101476.91;2078851;28;45855;-61
2022/10/08 00:08:40;;;;;;;;;6.67;5.00;;;;;17.23;50.65;101476.03;2083688;28;46832;-61
2022/10/08 00:09:40;;;;;;;;;5.50;5.50;;;;;17.21;50.82;101488.63;2088255;28;45819;-62
2022/10/08 00:10:41;;;;;;;;;4.00;4.00;;;;;17.20;50.94;101493.13;2094984;28;45549;-63
2022/10/08 00:11:44;;;;;;;;;5.67;5.67;;;;;17.20;51.20;101492.25;2091476;28;46868;-62
2022/10/08 00:12:45;;;;;;;;;7.00;5.75;;;;;17.20;51.01;101492.25;2096703;28;46826;-62
2022/10/08 00:13:47;;;;;;;;;6.33;5.33;;;;;17.20;50.91;101492.25;2076300;28;45914;-62
2022/10/08 00:14:47;;;;;;;;;3.75;3.75;;;;;17.19;51.02;101483.31;2072241;28;46686;-62
2022/10/08 00:15:48;;;;;;;;;4.00;3.67;;;;;17.18;51.15;101488.75;2095183;28;46276;-62
2022/10/08 00:16:49;;;;;;;;;5.40;5.40;;;;;17.18;51.00;101486.94;2095755;28;45656;-62
2022/10/08 00:17:49;;;;;;;;;4.33;3.33;;;;;17.18;51.22;101489.63;2080814;28;46625;-62
2022/10/08 00:18:52;;;;;;;;;4.00;4.00;;;;;17.18;50.93;101486.06;2087240;28;46627;-63
2022/10/08 00:19:53;;;;;;;;;4.25;4.25;;;;;17.17;50.79;101487.00;2088151;28;46284;-63
2022/10/08 00:21:04;;;;;;;;;4.50;4.50;;;;;17.16;50.66;101490.63;2087966;28;46684;-64
2022/10/08 00:22:04;;;;;;;;;4.00;3.75;;;;;17.16;50.97;101485.25;2092203;28;46571;-64
2022/10/08 00:23:04;;;;;;;;;3.75;3.75;;;;;17.14;50.89;101487.09;2087576;28;46418;-63
2022/10/08 00:24:06;;;;;;;;;4.00;4.00;;;;;17.12;50.88;101489.84;2087447;28;46344;-61
2022/10/08 00:25:08;;;;;;;;;5.00;4.00;;;;;17.12;51.52;101489.84;2092034;28;46885;-62
2022/10/08 00:26:10;;;;;;;;;4.00;3.80;;;;;17.11;51.11;101490.78;2087324;28;46920;-63
2022/10/08 00:27:11;;;;;;;;;3.00;3.00;;;;;17.10;51.01;101480.97;2087048;28;47084;-62
2022/10/08 00:28:14;;;;;;;;;4.25;3.75;;;;;17.09;51.32;101495.31;2088023;28;46471;-61
2022/10/08 00:29:18;;;;;;;;;3.75;3.75;;;;;17.07;51.00;101491.81;2088304;28;45805;-62
2022/10/08 00:30:19;;;;;;;;;2.50;2.00;;;;;17.06;51.42;101488.25;2096564;28;46817;-63
2022/10/08 00:31:26;;;;;;;;;5.00;3.33;;;;;17.05;51.17;101489.19;2088813;28;45848;-63
2022/10/08 00:32:26;;;;;;;;;4.80;3.20;;;;;17.04;50.89;101484.78;2091542;28;45866;-63
2022/10/08 00:33:26;;;;;;;;;4.33;3.00;;;;;17.03;50.95;101488.38;2096294;28;46351;-63
2022/10/08 00:34:27;;;;;;;;;5.33;4.00;;;;;17.01;50.93;101481.31;2090753;28;46397;-63
2022/10/08 00:35:27;;;;;;;;;3.33;3.00;;;;;16.99;51.18;101483.16;2096588;28;45877;-63
2022/10/08 00:36:32;;;;;;;;;5.33;5.33;;;;;16.96;51.04;101481.47;2096247;28;46579;-62
2022/10/08 00:37:33;;;;;;;;;4.00;3.50;;;;;16.94;51.54;101488.72;2096830;28;45338;-62
2022/10/08 00:38:34;;;;;;;;;3.00;3.00;;;;;16.92;51.34;101490.56;2090024;28;46706;-61
2022/10/08 00:39:34;;;;;;;;;3.00;3.00;;;;;16.90;51.32;101489.75;2095148;28;46691;-60
2022/10/08 00:40:45;;;;;;;;;4.67;4.33;;;;;16.88;51.73;101480.88;2093453;28;45816;-62
2022/10/08 00:41:48;;;;;;;;;4.75;3.25;;;;;16.87;51.48;101489.84;2088484;28;46592;-62
2022/10/08 00:42:48;;;;;;;;;3.75;3.00;;;;;16.85;51.10;101489.03;2096378;28;46588;-64
2022/10/08 00:44:02;;;;;;;;;4.00;4.00;;;;;16.84;51.39;101492.63;2094138;28;46195;-63
2022/10/08 00:45:04;;;;;;;;;3.00;3.00;;;;;16.82;51.57;101485.59;2095657;28;46543;-63
2022/10/08 00:46:11;;;;;;;;;3.25;3.25;;;;;16.82;51.48;101486.47;2095192;28;46482;-62
2022/10/08 00:47:35;;;;;;;;;4.00;4.00;;;;;16.82;51.47;101496.31;2096792;28;45659;-61
2022/10/08 00:48:35;;;;;;;;;2.00;2.00;;;;;16.81;52.03;101495.44;2095995;28;46889;-63
2022/10/08 00:49:37;;;;;;;;;4.00;3.00;;;;;16.82;51.69;101494.50;2096320;28;46384;-61
2022/10/08 00:50:38;;;;;;;;;8.75;8.00;;;;;16.81;51.64;101494.56;2094089;28;46458;-61
2022/10/08 00:51:48;;;;;;;;;3.25;2.50;;;;;16.81;52.08;101492.75;2096078;28;47107;-61
2022/10/08 00:53:02;;;;;;;;;5.00;5.00;;;;;16.81;51.52;101498.13;2088017;28;46959;-63
2022/10/08 00:54:03;;;;;;;;;5.25;5.25;;;;;16.79;51.53;101499.09;2087057;28;47002;-62
2022/10/08 00:55:06;;;;;;;;;5.00;5.00;;;;;16.78;51.73;101490.19;2086964;28;46366;-62
2022/10/08 00:56:08;;;;;;;;;4.00;4.00;;;;;16.76;51.95;101492.03;2096756;28;46780;-64
2022/10/08 00:57:08;;;;;;;;;4.25;4.25;;;;;16.75;52.00;101490.28;2095767;28;46599;-62
2022/10/08 00:58:20;;;;;;;;;3.00;3.00;;;;;16.74;52.14;101494.75;2095935;28;46326;-63
2022/10/08 00:59:20;;;;;;;;;4.50;4.50;;;;;16.73;51.83;101493.00;2088042;28;46191;-62
2022/10/08 01:00:24;;;;;;;;;6.67;6.33;;;;;16.73;52.23;101490.31;2096224;28;46865;-62
2022/10/08 01:01:24;;;;;;;;;5.00;5.00;;;;;16.73;51.89;101490.31;2087185;28;45679;-62
2022/10/08 01:02:25;;;;;;;;;6.00;5.00;;;;;16.76;51.82;101497.38;2087007;28;46767;-63
2022/10/08 01:03:25;;;;;;;;;4.33;4.00;;;;;16.76;51.97;101500.94;2093875;28;46414;-62
2022/10/08 01:04:25;;;;;;;;;4.00;4.00;;;;;16.77;52.29;101499.16;2085624;28;46168;-63
2022/10/08 01:05:34;;;;;;;;;4.33;4.00;;;;;16.77;51.98;101500.03;2086832;28;46915;-63
2022/10/08 01:06:52;;;;;;;;;4.25;4.25;;;;;16.75;51.88;101491.16;2095323;28;46743;-64
2022/10/08 01:08:19;;;;;;;;;3.25;3.25;;;;;16.75;52.17;101491.16;2091858;28;45043;-63
2022/10/08 01:09:31;;;;;;;;;3.00;3.00;;;;;16.76;52.06;101486.66;2090674;28;46856;-63
2022/10/08 01:10:41;;;;;;;;;5.75;3.25;;;;;16.74;52.02;101484.03;2087592;28;46448;-63
2022/10/08 01:11:46;;;;;;;;;4.00;3.25;;;;;16.74;51.98;101483.16;2094207;28;46025;-61
2022/10/08 01:13:04;;;;;;;;;3.50;3.50;;;;;16.74;52.21;101486.72;2093696;28;46062;-62
2022/10/08 01:14:52;;;;;;;;;4.00;1.50;;;;;16.74;52.26;101483.16;2096191;28;46542;-62
2022/10/08 01:16:06;;;;;;;;;5.00;5.00;;;;;16.73;52.56;101490.31;2091542;28;46769;-62
2022/10/08 01:17:15;;;;;;;;;3.75;3.00;;;;;16.72;52.56;101485.91;2087889;28;47293;-64
2022/10/08 01:18:38;;;;;;;;;3.25;3.00;;;;;16.71;52.64;101488.63;2089087;28;46559;-63
2022/10/08 01:20:06;;;;;;;;;2.75;2.75;;;;;16.71;52.36;101488.63;2082979;28;46352;-62
2022/10/08 01:21:12;;;;;;;;;2.75;2.75;;;;;16.70;52.42;101489.56;2088039;28;46930;-63
2022/10/08 01:22:31;;;;;;;;;4.25;3.00;;;;;16.69;52.41;101485.13;2087970;28;46612;-63
2022/10/08 01:23:38;;;;;;;;;3.00;3.00;;;;;16.68;52.54;101488.75;2094202;28;45604;-62
2022/10/08 01:26:34;;;;;;;;;4.75;4.75;;;;;16.67;52.72;101495.00;2095994;28;47251;-63
2022/10/08 01:27:59;;;;;;;;;4.25;4.25;;;;;16.67;53.17;101489.66;2091982;28;45324;-63
2022/10/08 01:29:20;;;;;;;;;3.25;3.00;;;;;16.65;52.63;101488.84;2087838;28;46412;-62
2022/10/08 01:30:20;;;;;;;;;5.00;4.00;;;;;16.64;52.70;101493.31;2093999;28;46952;-64
2022/10/08 01:31:25;;;;;;;;;4.67;3.00;;;;;16.62;52.97;101489.78;2088849;28;46583;-62
2022/10/08 01:32:37;;;;;;;;;2.25;2.25;;;;;16.63;52.83;101487.97;2092437;28;46721;-64
2022/10/08 01:33:44;;;;;;;;;5.75;5.75;;;;;16.63;52.87;101483.50;2092384;28;46350;-64
2022/10/08 01:35:04;;;;;;;;;6.00;6.00;;;;;16.62;53.10;101489.78;2087499;28;46272;-63
2022/10/08 01:36:07;;;;;;;;;4.00;4.00;;;;;16.62;53.17;101486.22;2087535;28;47065;-62
2022/10/08 01:37:16;;;;;;;;;3.00;3.00;;;;;16.62;53.14;101484.44;2095521;28;46460;-61
2022/10/08 01:38:19;;;;;;;;;3.75;3.75;;;;;16.61;53.23;101488.03;2091456;28;46509;-62
2022/10/08 01:39:24;;;;;;;;;4.50;4.00;;;;;16.61;53.55;101480.00;2087904;28;46625;-61
2022/10/08 01:40:31;;;;;;;;;9.00;8.25;;;;;16.62;53.38;101479.06;2089271;28;45965;-64
2022/10/08 01:41:32;;;;;;;;;3.25;3.00;;;;;16.63;52.99;101482.63;2089158;28;46269;-62
2022/10/08 01:42:35;;;;;;;;;5.25;4.75;;;;;16.63;53.29;101480.81;2095348;28;46811;-64
2022/10/08 01:43:41;;;;;;;;;4.00;4.00;;;;;16.64;53.50;101482.59;2088155;28;45904;-63
2022/10/08 01:44:51;;;;;;;;;3.75;3.00;;;;;16.64;52.99;101479.00;2087844;28;46609;-63
2022/10/08 01:45:57;;;;;;;;;3.00;2.00;;;;;16.63;53.14;101480.81;2087730;28;46655;-62
2022/10/08 01:47:01;;;;;;;;;3.00;3.00;;;;;16.61;53.69;101477.31;2086824;28;46306;-64
2022/10/08 01:48:07;;;;;;;;;4.00;2.00;;;;;16.61;53.67;101479.13;2092497;28;46702;-62
2022/10/08 01:49:12;;;;;;;;;4.00;2.75;;;;;16.61;53.27;101474.63;2088037;28;46384;-64
2022/10/08 01:50:16;;;;;;;;;2.50;2.50;;;;;16.61;53.33;101474.63;2094872;28;46288;-63
2022/10/08 01:51:22;;;;;;;;;2.25;2.25;;;;;16.60;53.63;101480.94;2098321;28;47788;-64
2022/10/08 01:52:27;;;;;;;;;2.25;2.25;;;;;16.58;53.74;101482.78;2096342;28;46256;-62
2022/10/08 01:53:33;;;;;;;;;2.50;2.50;;;;;16.59;53.84;101480.97;2096239;28;46941;-63
2022/10/08 01:54:36;;;;;;;;;14.75;11.75;;;;;16.60;53.79;101485.41;2089231;28;45749;-64
2022/10/08 01:55:47;;;;;;;;;5.00;4.00;;;;;16.60;53.65;101485.41;2089481;28;46939;-61
2022/10/08 01:56:49;;;;;;;;;1.00;1.00;;;;;16.60;53.47;101478.25;2096086;28;46909;-61
2022/10/08 01:57:51;;;;;;;;;2.00;2.00;;;;;16.61;53.84;101481.81;2095990;28;45627;-63
2022/10/08 01:59:07;;;;;;;;;3.75;3.75;;;;;16.61;53.64;101471.97;2095898;28;45923;-65
2022/10/08 02:00:10;;;;;;;;;13.80;11.40;;;;;16.62;54.18;101476.38;2095890;28;46421;-61
2022/10/08 02:01:48;;;;;;;;;5.25;5.25;;;;;16.64;54.10;101470.97;2093881;28;46295;-62
2022/10/08 02:02:48;;;;;;;;;4.00;4.00;;;;;16.63;53.78;101471.91;2095599;28;46638;-61
2022/10/08 02:05:10;;;;;;;;;1.75;1.75;;;;;16.63;53.99;101474.56;2094467;28;46308;-62
2022/10/08 02:06:11;;;;;;;;;4.00;3.00;;;;;16.62;54.35;101467.47;2088623;28;46942;-62
2022/10/08 02:07:18;;;;;;;;;3.67;1.33;;;;;16.61;54.28;101463.03;2091789;28;47798;-63
2022/10/08 02:08:19;;;;;;;;;2.50;2.50;;;;;16.60;54.41;101470.22;2088458;28;46706;-62
2022/10/08 02:09:31;;;;;;;;;3.00;3.00;;;;;16.59;54.18;101468.47;2086422;28;46741;-62
2022/10/08 02:10:32;;;;;;;;;1.75;1.25;;;;;16.60;54.37;101466.66;2089448;28;46310;-63
2022/10/08 02:11:34;;;;;;;;;3.00;3.00;;;;;16.58;54.63;101472.06;2096005;28;46644;-61
2022/10/08 02:12:35;;;;;;;;;2.00;1.00;;;;;16.57;54.30;101464.97;2093469;28;46416;-61
2022/10/08 02:13:36;;;;;;;;;1.00;1.00;;;;;16.55;54.21;101461.47;2091935;28;46363;-62
2022/10/08 02:14:42;;;;;;;;;1.33;1.33;;;;;16.54;54.78;101465.06;2096006;28;46981;-61
2022/10/08 02:15:53;;;;;;;;;2.75;1.75;;;;;16.54;54.48;101470.44;2096304;28;46856;-62
2022/10/08 02:17:23;;;;;;;;;2.00;1.25;;;;;16.54;54.64;101462.41;2097403;28;46399;-62
2022/10/08 02:18:39;;;;;;;;;4.50;3.25;;;;;16.55;55.09;101469.50;2088771;28;46518;-62
2022/10/08 02:19:55;;;;;;;;;2.00;1.00;;;;;16.57;54.70;101482.84;2089150;28;46308;-63
2022/10/08 02:21:03;;;;;;;;;1.75;1.75;;;;;16.54;54.72;101475.78;2090350;28;46677;-62
2022/10/08 02:22:05;;;;;;;;;0.75;0.75;;;;;16.53;54.51;101471.38;2093625;28;46786;-63
2022/10/08 02:23:27;;;;;;;;;0.75;0.75;;;;;16.52;55.04;101474.97;2090341;28;46411;-63
2022/10/08 02:24:39;;;;;;;;;4.75;2.00;;;;;16.51;54.67;101473.19;2090696;28;45238;-62
2022/10/08 02:25:52;;;;;;;;;2.00;2.00;;;;;16.52;54.92;101472.28;2089003;28;46540;-62
2022/10/08 02:26:57;;;;;;;;;2.00;2.00;;;;;16.54;54.91;101469.56;2097517;28;46498;-61
2022/10/08 02:28:11;;;;;;;;;2.50;2.50;;;;;16.54;55.08;101474.91;2093663;28;46583;-63
2022/10/08 02:29:53;;;;;;;;;2.25;2.00;;;;;16.53;55.30;101476.72;2094373;28;45833;-62
2022/10/08 02:31:00;;;;;;;;;2.00;2.00;;;;;16.54;54.97;101472.25;2049445;28;45707;-62
2022/10/08 02:32:13;;;;;;;;;1.25;1.25;;;;;16.54;55.23;101477.59;2055878;28;46724;-61
2022/10/08 02:33:22;;;;;;;;;2.25;1.75;;;;;16.56;55.45;101473.06;2059333;28;46921;-62
2022/10/08 02:34:30;;;;;;;;;1.00;1.00;;;;;16.57;54.83;101472.13;2057546;28;46614;-61
2022/10/08 02:35:43;;;;;;;;;3.00;1.75;;;;;16.57;55.23;101472.13;2061586;28;46765;-63
2022/10/08 02:36:50;;;;;;;;;1.75;1.75;;;;;16.56;54.95;101467.69;2060595;28;45335;-62
2022/10/08 02:38:00;;;;;;;;;2.50;2.00;;;;;16.54;54.94;101473.13;2056073;28;46676;-61
2022/10/08 02:39:05;;;;;;;;;0.75;0.75;;;;;16.53;55.29;101466.00;2059125;28;46615;-62
2022/10/08 02:40:10;;;;;;;;;1.00;1.00;;;;;16.53;55.25;101474.03;2054855;28;46905;-62
2022/10/08 02:41:13;;;;;;;;;1.00;1.00;;;;;16.53;55.37;101471.38;2055185;28;46929;-62
2022/10/08 02:42:20;;;;;;;;;1.00;1.00;;;;;16.51;55.45;101470.50;2059297;28;46960;-62
2022/10/08 02:43:26;;;;;;;;;2.00;2.00;;;;;16.48;55.56;101466.16;2058695;28;46460;-63
2022/10/08 02:44:51;;;;;;;;;2.75;1.50;;;;;16.48;55.51;101465.28;2055419;28;46496;-63
2022/10/08 02:46:00;;;;;;;;;2.50;2.00;;;;;16.47;55.57;101467.06;2055721;28;45455;-62
2022/10/08 02:47:05;;;;;;;;;1.75;1.75;;;;;16.46;55.22;101467.13;2056284;28;46274;-62
2022/10/08 02:48:14;;;;;;;;;0.75;0.75;;;;;16.43;55.30;101467.25;2056385;28;45583;-64
2022/10/08 02:49:23;;;;;;;;;2.75;2.75;;;;;16.43;55.19;101475.28;2055225;28;46814;-64
2022/10/08 02:50:27;;;;;;;;;1.50;1.50;;;;;16.43;55.55;101472.59;2056180;28;47131;-61
2022/10/08 02:51:31;;;;;;;;;2.00;2.00;;;;;16.42;55.48;101470.84;2055504;28;46906;-63
2022/10/08 02:52:38;;;;;;;;;1.50;1.50;;;;;16.43;55.58;101477.97;2055161;28;46690;-62
2022/10/08 02:53:40;;;;;;;;;1.25;1.25;;;;;16.42;56.05;101469.03;2055665;28;46916;-62
2022/10/08 02:54:43;;;;;;;;;1.00;1.00;;;;;16.43;55.80;101469.91;2055131;28;45856;-63
2022/10/08 02:56:07;;;;;;;;;1.50;1.50;;;;;16.43;56.13;101462.75;2055170;28;46739;-63
2022/10/08 02:57:25;;;;;;;;;1.25;1.25;;;;;16.44;55.55;101469.00;2059661;28;45903;-63
2022/10/08 02:58:25;;;;;;;;;1.75;1.75;;;;;16.44;55.68;101469.88;2059152;28;46674;-64
2022/10/08 02:59:26;;;;;;;;;3.67;1.67;;;;;16.44;56.02;101471.66;2054933;28;45686;-61
2022/10/08 03:00:34;;;;;;;;;1.00;1.00;;;;;16.45;56.11;101470.75;2059363;28;46300;-63
2022/10/08 03:01:47;;;;;;;;;1.00;1.00;;;;;16.44;55.61;101469.00;2059180;28;46826;-63
2022/10/08 03:03:02;;;;;;;;;1.50;1.50;;;;;16.42;56.04;101465.50;2055462;28;45852;-62
2022/10/08 03:04:09;;;;;;;;;2.00;2.00;;;;;16.41;56.26;101475.34;2060832;28;46677;-63
2022/10/08 03:05:16;;;;;;;;;1.25;1.25;;;;;16.39;56.16;101461.13;2063198;28;46410;-62
2022/10/08 03:06:17;;;;;;;;;2.00;2.00;;;;;16.38;55.98;101467.38;2096933;28;46675;-61
2022/10/08 03:07:21;;;;;;;;;2.67;1.33;;;;;16.37;56.54;101468.31;2097375;28;46475;-61
2022/10/08 03:08:22;;;;;;;;;2.00;2.00;;;;;16.37;56.26;101470.13;2101268;28;47334;-62
2022/10/08 03:09:27;;;;;;;;;1.33;1.33;;;;;16.36;56.57;101471.91;2097129;28;46533;-60
2022/10/08 03:10:29;;;;;;;;;2.00;2.00;;;;;16.36;56.37;101469.25;2088559;28;46898;-62
2022/10/08 03:11:30;;;;;;;;;2.75;2.75;;;;;16.35;56.91;101469.28;2096402;28;46593;-62
2022/10/08 03:12:32;;;;;;;;;1.25;0.25;;;;;16.35;56.51;101471.97;2095674;28;45981;-62
2022/10/08 03:13:37;;;;;;;;;3.25;0.75;;;;;16.33;56.86;101472.03;2097362;28;46460;-63
2022/10/08 03:14:40;;;;;;;;;3.00;3.00;;;;;16.33;56.98;101472.03;2096428;28;46499;-62
2022/10/08 03:15:41;;;;;;;;;5.00;2.75;;;;;16.32;57.11;101469.41;2096824;28;46343;-62
2022/10/08 03:16:44;;;;;;;;;1.00;1.00;;;;;16.32;56.29;101469.41;2095532;28;46903;-61
2022/10/08 03:17:46;;;;;;;;;1.00;1.00;;;;;16.30;57.21;101464.09;2093927;28;45498;-62
2022/10/08 03:18:49;;;;;;;;;2.00;1.00;;;;;16.30;57.02;101471.25;2089233;28;45951;-62
2022/10/08 03:19:50;;;;;;;;;1.00;1.00;;;;;16.31;57.38;101467.66;2091115;28;46050;-63
2022/10/08 03:20:54;;;;;;;;;1.33;1.33;;;;;16.30;57.10;101469.47;2089599;28;46244;-65
2022/10/08 03:21:55;;;;;;;;;1.25;1.25;;;;;16.31;57.48;101473.00;2094939;28;47044;-63
2022/10/08 03:22:59;;;;;;;;;0.50;0.50;;;;;16.32;57.18;101480.13;2092317;28;46177;-63
2022/10/08 03:24:00;;;;;;;;;2.67;1.00;;;;;16.32;57.90;101475.63;2096804;28;46648;-62
2022/10/08 03:25:00;;;;;;;;;2.00;2.00;;;;;16.31;57.15;101478.38;2091968;28;46584;-63
2022/10/08 03:26:01;;;;;;;;;1.67;1.67;;;;;16.31;57.40;101470.34;2090503;28;45233;-64
2022/10/08 03:27:01;;;;;;;;;2.00;2.00;;;;;16.29;57.49;101481.09;2087636;28;46878;-64
2022/10/08 03:28:02;;;;;;;;;0.67;0.67;;;;;16.28;57.95;101478.47;2084075;28;45706;-63
2022/10/08 03:29:03;;;;;;;;;1.33;1.00;;;;;16.27;57.55;101477.59;2096328;28;46881;-62
2022/10/08 03:30:04;;;;;;;;;0.00;0.00;;;;;16.28;57.40;101483.84;2090376;28;47276;-61
2022/10/08 03:31:05;;;;;;;;;2.00;2.00;;;;;16.28;57.65;101486.50;2089989;28;46842;-64
2022/10/08 03:32:05;;;;;;;;;0.75;0.75;;;;;16.27;57.71;101491.00;2088486;28;46596;-63
2022/10/08 03:33:05;;;;;;;;;0.33;0.33;;;;;16.28;57.65;101486.50;2095534;28;45753;-63
2022/10/08 03:34:06;;;;;;;;;1.00;1.00;;;;;16.27;57.93;101487.44;2097283;28;47004;-62
2022/10/08 03:35:06;;;;;;;;;5.00;2.33;;;;;16.25;58.48;101479.44;2090901;28;46365;-63
2022/10/08 03:36:07;;;;;;;;;1.33;1.00;;;;;16.25;57.81;101479.44;2095952;28;46274;-62
2022/10/08 03:37:07;;;;;;;;;2.33;2.33;;;;;16.25;58.25;101484.78;2088605;28;46874;-62
2022/10/08 03:38:08;;;;;;;;;2.67;1.00;;;;;16.24;58.25;101484.84;2089332;28;46681;-62
2022/10/08 03:39:11;;;;;;;;;3.33;3.33;;;;;16.26;57.94;101483.88;2096789;28;46441;-62
2022/10/08 03:40:12;;;;;;;;;1.00;1.00;;;;;16.24;57.57;101482.16;2095719;28;46936;-61
2022/10/08 03:41:12;;;;;;;;;0.67;0.67;;;;;16.22;57.82;101495.59;2082965;28;46654;-62
2022/10/08 03:42:13;;;;;;;;;2.00;2.00;;;;;16.20;57.99;101484.06;2095231;28;46719;-63
2022/10/08 03:43:13;;;;;;;;;0.67;0.67;;;;;16.18;58.38;101497.53;2093679;28;46556;-62
2022/10/08 03:44:14;;;;;;;;;2.67;2.67;;;;;16.17;58.41;101500.25;2088718;28;46219;-63
2022/10/08 03:45:14;;;;;;;;;2.33;2.00;;;;;16.17;58.95;101493.09;2095271;28;46159;-61
2022/10/08 03:46:14;;;;;;;;;3.00;3.00;;;;;16.17;58.63;101498.44;2096848;28;46416;-61
2022/10/08 03:47:15;;;;;;;;;1.67;1.67;;;;;16.17;59.05;101498.44;2088754;28;45450;-61
2022/10/08 03:48:15;;;;;;;;;2.33;2.00;;;;;16.17;58.66;101501.13;2093857;28;46223;-62
2022/10/08 03:49:15;;;;;;;;;1.33;1.33;;;;;16.17;58.55;101502.94;2096721;28;46685;-63
2022/10/08 03:50:16;;;;;;;;;2.00;1.00;;;;;16.19;58.66;101503.75;2097261;28;45429;-62
2022/10/08 03:51:17;;;;;;;;;2.33;2.33;;;;;16.19;59.10;101501.06;2096433;28;46897;-62
2022/10/08 03:52:18;;;;;;;;;1.25;1.25;;;;;16.19;58.44;101501.94;2089242;28;47446;-62
2022/10/08 03:53:19;;;;;;;;;1.00;1.00;;;;;16.21;59.09;101503.69;2077218;28;46598;-63
2022/10/08 03:54:19;;;;;;;;;1.50;1.50;;;;;16.19;59.05;101509.97;2080011;28;46932;-62
2022/10/08 03:55:20;;;;;;;;;1.00;1.00;;;;;16.18;59.11;101510.03;2079530;28;46349;-64
2022/10/08 03:56:23;;;;;;;;;0.00;0.00;;;;;16.16;58.98;101509.22;2079901;28;46935;-62
2022/10/08 03:57:23;;;;;;;;;2.00;2.00;;;;;16.15;59.10;101510.13;2070954;28;46397;-62
2022/10/08 03:58:24;;;;;;;;;3.00;2.00;;;;;16.14;59.20;101511.94;2070714;28;46167;-62
2022/10/08 03:59:24;;;;;;;;;0.67;0.67;;;;;16.14;59.34;101511.94;2062324;28;46256;-63
2022/10/08 04:00:24;;;;;;;;;2.00;1.33;;;;;16.13;59.29;101512.88;2062889;28;46858;-61
2022/10/08 04:01:26;;;;;;;;;2.33;1.00;;;;;16.14;59.59;101511.94;2079022;28;46176;-62
2022/10/08 04:02:27;;;;;;;;;2.00;2.00;;;;;16.15;59.14;101508.34;2078727;28;45747;-62
2022/10/08 04:03:28;;;;;;;;;1.00;1.00;;;;;16.17;58.98;101511.84;2078864;28;46530;-62
2022/10/08 04:04:28;;;;;;;;;1.75;1.00;;;;;16.16;59.28;101517.25;2082998;28;47070;-63
2022/10/08 04:05:29;;;;;;;;;1.00;1.00;;;;;16.17;59.48;101508.28;2083454;28;46594;-63
2022/10/08 04:06:29;;;;;;;;;2.00;2.00;;;;;16.15;59.83;101511.00;2078871;28;46369;-62
2022/10/08 04:07:29;;;;;;;;;4.67;3.33;;;;;16.14;59.79;101511.94;2078830;28;46351;-62
2022/10/08 04:08:29;;;;;;;;;2.67;2.00;;;;;16.13;59.74;101506.59;2078994;28;45576;-62
2022/10/08 04:09:30;;;;;;;;;2.00;2.00;;;;;16.14;59.45;101519.09;2078487;28;46468;-63
2022/10/08 04:10:30;;;;;;;;;1.00;1.00;;;;;16.14;59.77;101521.78;2079536;28;45575;-62
2022/10/08 04:11:30;;;;;;;;;2.00;2.00;;;;;16.13;59.80;101523.59;2079114;28;45959;-63
2022/10/08 04:12:31;;;;;;;;;3.33;2.00;;;;;16.15;59.63;101524.41;2078407;28;47201;-63
2022/10/08 04:13:31;;;;;;;;;2.67;2.00;;;;;16.13;59.39;101536.97;2072330;28;46801;-63
2022/10/08 04:14:31;;;;;;;;;2.00;2.00;;;;;16.14;59.70;101532.50;2071811;28;46663;-63
2022/10/08 04:15:32;;;;;;;;;2.67;2.67;;;;;16.15;60.21;101539.59;2079050;28;46626;-61
2022/10/08 04:16:32;;;;;;;;;1.67;1.33;;;;;16.14;59.84;101533.38;2079108;28;45115;-61
2022/10/08 04:17:33;;;;;;;;;1.00;1.00;;;;;16.15;59.79;101537.78;2079222;28;46428;-61
2022/10/08 04:18:33;;;;;;;;;4.67;4.00;;;;;16.16;60.02;101533.31;2078914;28;46318;-63
2022/10/08 04:19:34;;;;;;;;;2.67;0.00;;;;;16.17;59.53;101541.28;2079112;28;46230;-62
2022/10/08 04:20:34;;;;;;;;;1.67;1.67;;;;;16.18;59.57;101536.81;2079048;28;46636;-62
2022/10/08 04:21:34;;;;;;;;;2.00;2.00;;;;;16.18;59.65;101536.81;2079305;28;45118;-63
2022/10/08 04:22:35;;;;;;;;;1.33;1.33;;;;;16.18;60.09;101543.03;2078702;28;46832;-62
2022/10/08 04:23:37;;;;;;;;;1.00;1.00;;;;;16.20;59.75;101545.66;2078873;28;46695;-62
2022/10/08 04:24:38;;;;;;;;;1.75;0.75;;;;;16.19;59.91;101552.84;2080584;28;46637;-63
2022/10/08 04:25:47;;;;;;;;;2.00;2.00;;;;;16.19;60.04;101547.47;2095975;28;46273;-62
2022/10/08 04:26:48;;;;;;;;;2.75;1.25;;;;;16.18;59.84;101544.84;2095662;28;46368;-62
2022/10/08 04:27:48;;;;;;;;;3.00;2.00;;;;;16.15;59.92;101543.16;2097478;28;46284;-63
2022/10/08 04:28:49;;;;;;;;;2.00;2.00;;;;;16.15;60.02;101548.50;2096241;28;46527;-63
2022/10/08 04:29:49;;;;;;;;;2.00;2.00;;;;;16.15;60.12;101553.00;2092236;28;45584;-63
2022/10/08 04:31:03;;;;;;;;;4.00;3.00;;;;;16.14;59.65;101545.88;2091728;28;46137;-61
2022/10/08 04:32:04;;;;;;;;;4.50;2.75;;;;;16.13;59.76;101550.38;2088099;28;46459;-63
2022/10/08 04:33:04;;;;;;;;;3.33;3.00;;;;;16.13;59.79;101555.72;2095957;28;46605;-62
2022/10/08 04:34:05;;;;;;;;;2.00;2.00;;;;;16.14;60.19;101553.91;2096898;28;46320;-62
2022/10/08 04:35:06;;;;;;;;;1.00;1.00;;;;;16.13;59.79;101558.41;2090769;28;47122;-63
2022/10/08 04:36:08;;;;;;;;;1.75;1.75;;;;;16.12;60.00;101559.28;2095934;28;46314;-64
2022/10/08 04:37:08;;;;;;;;;3.00;3.00;;;;;16.12;59.95;101553.94;2090562;28;46368;-62
2022/10/08 04:38:09;;;;;;;;;4.00;3.00;;;;;16.12;60.12;101556.63;2095500;28;46666;-61
2022/10/08 04:39:09;;;;;;;;;1.33;1.33;;;;;16.12;60.18;101555.75;2095988;28;46479;-63
2022/10/08 04:40:09;;;;;;;;;2.00;2.00;;;;;16.11;60.29;101560.22;2096669;28;46806;-62
2022/10/08 04:41:22;;;;;;;;;1.33;1.33;;;;;16.11;60.47;101567.38;2092121;28;46015;-62
2022/10/08 04:42:22;;;;;;;;;3.00;3.00;;;;;16.09;59.89;101562.06;2095752;28;45316;-62
2022/10/08 04:43:22;;;;;;;;;3.00;2.67;;;;;16.10;60.42;101563.81;2095518;28;46653;-64
2022/10/08 04:44:23;;;;;;;;;1.33;1.33;;;;;16.11;60.22;101559.34;2088043;28;47926;-63
2022/10/08 04:45:23;;;;;;;;;3.00;3.00;;;;;16.09;60.02;101562.06;2087978;28;46514;-63
2022/10/08 04:46:23;;;;;;;;;2.00;2.00;;;;;16.08;60.41;101554.09;2088988;28;46172;-62
2022/10/08 04:47:24;;;;;;;;;2.33;2.00;;;;;16.07;60.58;101558.56;2096170;28;46591;-63
2022/10/08 04:48:24;;;;;;;;;2.67;2.67;;;;;16.06;60.46;101561.28;2096481;28;45764;-61
2022/10/08 04:49:27;;;;;;;;;2.33;2.33;;;;;16.05;60.55;101570.25;2096773;28;45766;-62
2022/10/08 04:50:27;;;;;;;;;2.00;2.00;;;;;16.03;60.69;101572.09;2096045;28;46490;-62
2022/10/08 04:51:28;;;;;;;;;3.00;3.00;;;;;16.02;60.67;101570.34;2095275;28;46882;-62
2022/10/08 04:52:30;;;;;;;;;3.00;3.00;;;;;16.01;60.47;101571.28;2087570;28;46018;-63
2022/10/08 04:53:31;;;;;;;;;2.25;2.00;;;;;15.98;60.61;101566.88;2089267;28;46960;-61
2022/10/08 04:54:32;;;;;;;;;2.25;2.25;;;;;15.98;60.53;101568.69;2088924;28;46770;-61
2022/10/08 04:55:32;;;;;;;;;2.67;2.00;;;;;15.99;61.05;101573.09;2095976;28;46520;-63
2022/10/08 04:56:36;;;;;;;;;3.00;3.00;;;;;15.96;60.66;101570.53;2095799;28;45585;-62
2022/10/08 04:57:36;;;;;;;;;4.25;1.75;;;;;15.97;61.05;101572.28;2088311;28;45794;-61
2022/10/08 04:58:37;;;;;;;;;2.33;2.33;;;;;15.96;60.78;101565.19;2095359;28;46801;-63
2022/10/08 04:59:38;;;;;;;;;1.25;1.25;;;;;15.95;61.04;101566.09;2096609;28;45868;-61
2022/10/08 05:00:38;;;;;;;;;5.67;2.33;;;;;15.93;61.06;101560.78;2093465;28;47138;-64
2022/10/08 05:01:38;;;;;;;;;2.67;2.67;;;;;15.93;61.20;101567.94;2096381;28;46327;-65
2022/10/08 05:02:39;;;;;;;;;3.00;3.00;;;;;15.92;61.22;101561.72;2088281;28;46368;-63
2022/10/08 05:03:45;;;;;;;;;4.00;4.00;;;;;15.89;61.57;101559.16;2087946;28;46919;-62